Time;durP1;ratioP1;P1;durP2;ratioP2;P2;SDS_P1;SDS_P2;PMS_P1;PMS_P2;Temp;Humidity;BMP_temperature;BMP_pressure;BME280_temperature;BME280_humidity;BME280_pressure;Samples;Min_cycle;Max_cycle;Signal;HPM_P1;HPM_P2
2021/08/12 00:01:29;;;;;;;10.40;6.38;;;;;;;19.95;72.91;96678.91;5093726;28;20040;-67
2021/08/12 00:03:55;;;;;;;13.88;6.43;;;;;;;19.93;73.09;96667.41;5089441;28;20055;-68
2021/08/12 00:06:22;;;;;;;11.02;6.15;;;;;;;19.88;73.76;96676.00;5093305;28;20052;-68
2021/08/12 00:08:48;;;;;;;9.63;6.13;;;;;;;19.82;73.65;96671.97;5094011;28;20044;-67
2021/08/12 00:11:15;;;;;;;12.48;5.97;;;;;;;19.77;73.79;96673.06;5093155;28;20055;-68
2021/08/12 00:13:41;;;;;;;12.40;6.45;;;;;;;19.72;73.62;96672.59;5093782;28;20066;-68
2021/08/12 00:16:08;;;;;;;9.45;6.43;;;;;;;19.73;74.00;96666.72;5093213;28;20506;-68
2021/08/12 00:18:36;;;;;;;12.13;6.68;;;;;;;19.72;74.49;96662.31;5093735;28;20039;-68
2021/08/12 00:21:02;;;;;;;9.60;6.70;;;;;;;19.68;74.53;96667.03;5092118;28;20047;-69
2021/08/12 00:23:29;;;;;;;11.68;6.70;;;;;;;19.64;74.37;96668.13;5093350;28;20035;-68
2021/08/12 00:25:56;;;;;;;11.40;6.47;;;;;;;19.65;74.51;96670.50;5092229;28;20039;-68
2021/08/12 00:28:23;;;;;;;13.02;5.93;;;;;;;19.64;74.99;96668.13;5092309;28;20048;-68
2021/08/12 00:30:50;;;;;;;9.63;6.13;;;;;;;19.63;75.08;96672.03;5093519;28;20486;-68
2021/08/12 00:33:16;;;;;;;8.30;5.93;;;;;;;19.64;74.45;96670.88;5092533;28;20050;-67
2021/08/12 00:35:44;;;;;;;7.55;5.53;;;;;;;19.65;73.77;96666.94;5093260;28;20040;-68
2021/08/12 00:38:10;;;;;;;6.50;5.18;;;;;;;19.62;73.98;96664.91;5092859;28;20039;-68
2021/08/12 00:40:38;;;;;;;13.82;6.60;;;;;;;19.54;74.62;96670.31;5093458;28;20044;-67
2021/08/12 00:43:05;;;;;;;12.38;6.18;;;;;;;19.49;74.71;96665.09;5092731;28;20040;-67
2021/08/12 00:45:31;;;;;;;12.75;5.80;;;;;;;19.42;74.81;96673.25;5093330;28;20048;-67
2021/08/12 00:47:58;;;;;;;11.02;6.75;;;;;;;19.40;75.06;96669.25;5093043;28;20036;-68
2021/08/12 00:50:24;;;;;;;11.70;6.20;;;;;;;19.38;75.33;96671.59;5092654;28;20056;-67
2021/08/12 00:52:52;;;;;;;12.57;6.38;;;;;;;19.36;75.48;96668.38;5092733;28;20048;-67
2021/08/12 00:55:19;;;;;;;12.38;6.10;;;;;;;19.35;75.43;96672.31;5092555;28;20040;-67
2021/08/12 00:57:46;;;;;;;12.93;6.28;;;;;;;19.33;75.61;96671.88;5092998;28;20040;-67
2021/08/12 01:00:14;;;;;;;12.77;5.70;;;;;;;19.27;75.28;96676.91;5092203;28;20047;-67
2021/08/12 01:02:41;;;;;;;10.93;6.30;;;;;;;19.26;75.38;96672.53;5092670;28;20036;-68
2021/08/12 01:05:09;;;;;;;10.50;6.00;;;;;;;19.24;75.75;96669.34;5092126;28;20410;-68
2021/08/12 01:07:45;;;;;;;11.07;6.18;;;;;;;19.25;75.61;96668.19;5092679;28;20039;-67
2021/08/12 01:10:19;;;;;;;10.05;5.70;;;;;;;19.27;74.90;96665.88;5092182;28;20513;-67
2021/08/12 01:12:53;;;;;;;10.27;5.50;;;;;;;19.27;74.59;96682.44;5092627;28;20043;-69
2021/08/12 01:15:28;;;;;;;10.95;6.07;;;;;;;19.21;74.77;96675.59;5092099;28;20047;-67
2021/08/12 01:18:00;;;;;;;8.57;5.72;;;;;;;19.12;74.87;96675.06;5092498;28;20055;-67
2021/08/12 01:20:50;;;;;;;10.00;5.63;;;;;;;19.09;75.51;96681.28;5092081;28;20036;-68
2021/08/12 01:23:18;;;;;;;14.60;6.18;;;;;;;19.05;76.34;96681.22;5071448;28;20052;-68
2021/08/12 01:25:48;;;;;;;12.50;6.22;;;;;;;19.08;76.36;96682.47;5071702;28;20036;-69
2021/08/12 01:28:18;;;;;;;10.63;6.20;;;;;;;19.06;76.27;96680.09;5071389;28;20036;-69
2021/08/12 01:30:53;;;;;;;10.32;5.75;;;;;;;19.01;76.13;96675.66;5072032;28;20541;-70
2021/08/12 01:33:29;;;;;;;16.02;5.97;;;;;;;18.94;76.08;96681.00;5076924;28;20052;-68
2021/08/12 01:35:59;;;;;;;7.85;5.78;;;;;;;18.97;76.07;96685.81;5092061;28;20044;-68
2021/08/12 01:38:29;;;;;;;9.82;6.50;;;;;;;18.98;76.35;96681.88;5091671;28;20047;-68
2021/08/12 01:40:58;;;;;;;9.07;5.65;;;;;;;18.95;76.84;96684.56;5092085;28;20047;-68
2021/08/12 01:43:25;;;;;;;11.13;5.90;;;;;;;18.93;76.85;96679.41;5091494;28;20130;-68
2021/08/12 01:45:54;;;;;;;11.63;6.00;;;;;;;18.95;75.85;96671.59;5091983;28;20519;-68
2021/08/12 01:48:22;;;;;;;8.63;6.00;;;;;;;18.98;75.59;96676.38;5091465;28;20051;-68
2021/08/12 01:50:51;;;;;;;8.35;5.22;;;;;;;18.97;75.81;96680.28;5091860;28;20048;-68
2021/08/12 01:53:20;;;;;;;11.23;5.32;;;;;;;18.98;74.59;96676.38;5091203;28;20044;-68
2021/08/12 01:55:48;;;;;;;9.00;5.40;;;;;;;18.95;74.49;96674.34;5091658;28;20583;-68
2021/08/12 01:58:17;;;;;;;14.20;5.70;;;;;;;18.93;75.23;96678.63;5091374;28;20048;-68
2021/08/12 02:00:46;;;;;;;11.10;5.80;;;;;;;18.87;75.82;96680.09;5091730;28;20048;-68
2021/08/12 02:03:15;;;;;;;10.15;6.00;;;;;;;18.80;75.96;96675.22;5091010;28;20047;-68
2021/08/12 02:05:43;;;;;;;10.10;6.25;;;;;;;18.81;75.95;96681.53;5091679;28;20044;-67
2021/08/12 02:08:10;;;;;;;10.30;5.78;;;;;;;18.77;75.30;96686.97;5091188;28;20071;-68
2021/08/12 02:10:38;;;;;;;12.02;6.25;;;;;;;18.70;75.21;96682.13;5091686;28;20048;-68
2021/08/12 02:13:06;;;;;;;8.57;5.97;;;;;;;18.67;75.65;96679.25;5091127;28;20051;-68
2021/08/12 02:15:32;;;;;;;13.15;6.38;;;;;;;18.63;75.62;96686.66;5091484;28;20048;-68
2021/08/12 02:17:59;;;;;;;15.73;6.97;;;;;;;18.62;75.67;96682.28;5091263;28;20036;-68
2021/08/12 02:20:25;;;;;;;10.88;6.40;;;;;;;18.64;75.98;96683.56;5090600;28;20047;-68
2021/08/12 02:22:58;;;;;;;8.43;5.55;;;;;;;18.66;75.84;96678.47;5090743;28;20406;-68
2021/08/12 02:25:31;;;;;;;9.63;6.00;;;;;;;18.70;75.55;96676.59;5090411;28;20415;-68
2021/08/12 02:28:03;;;;;;;11.13;6.28;;;;;;;18.70;75.57;96665.56;5091391;28;20032;-67
2021/08/12 02:30:30;;;;;;;15.20;6.65;;;;;;;18.68;75.58;96661.56;5090966;28;20036;-68
2021/08/12 02:32:57;;;;;;;12.48;6.88;;;;;;;18.63;75.54;96659.06;5091030;28;20036;-67
2021/08/12 02:35:24;;;;;;;11.25;7.13;;;;;;;18.58;75.79;96668.44;5090863;28;20055;-68
2021/08/12 02:37:54;;;;;;;11.85;6.35;;;;;;;18.55;75.73;96660.09;5091145;28;20402;-67
2021/08/12 02:40:23;;;;;;;11.88;6.78;;;;;;;18.54;75.83;96666.78;5090515;28;20059;-67
2021/08/12 02:42:51;;;;;;;10.68;6.40;;;;;;;18.58;75.81;96667.63;5091147;28;20047;-68
2021/08/12 02:45:19;;;;;;;12.38;7.20;;;;;;;18.60;75.45;96660.59;5090558;28;20048;-68
2021/08/12 02:47:48;;;;;;;8.82;6.15;;;;;;;18.61;75.01;96661.41;5091006;28;20044;-67
2021/08/12 02:50:16;;;;;;;11.18;5.80;;;;;;;18.57;74.47;96661.31;5090502;28;20044;-68
2021/08/12 02:52:43;;;;;;;8.68;6.15;;;;;;;18.52;74.80;96665.16;5090655;28;20055;-68
2021/08/12 02:55:11;;;;;;;13.18;6.93;;;;;;;18.46;75.23;96666.59;5090694;28;20048;-68
2021/08/12 02:57:37;;;;;;;12.93;7.18;;;;;;;18.42;75.93;96667.69;5090934;28;20394;-68
2021/08/12 03:00:05;;;;;;;11.80;7.20;;;;;;;18.38;76.17;96667.63;5090350;28;20048;-68
2021/08/12 03:02:34;;;;;;;11.82;7.45;;;;;;;18.33;76.31;96667.91;5090838;28;20047;-68
2021/08/12 03:05:01;;;;;;;14.43;7.07;;;;;;;18.27;76.31;96661.09;5090694;28;20048;-68
2021/08/12 03:07:29;;;;;;;11.57;7.18;;;;;;;18.26;76.38;96667.75;5090551;28;20040;-67
2021/08/12 03:09:58;;;;;;;12.45;7.13;;;;;;;18.30;75.99;96663.13;5090856;28;20044;-68
2021/08/12 03:12:25;;;;;;;10.60;7.10;;;;;;;18.30;75.92;96663.13;5090184;28;20036;-68
2021/08/12 03:14:53;;;;;;;11.65;7.28;;;;;;;18.25;75.92;96666.16;5090834;28;20383;-67
2021/08/12 03:17:20;;;;;;;12.63;7.57;;;;;;;18.22;76.19;96677.91;5089529;28;20495;-68
2021/08/12 03:19:48;;;;;;;12.55;8.13;;;;;;;18.15;75.85;96675.78;5090781;28;20040;-67
2021/08/12 03:22:16;;;;;;;12.63;7.85;;;;;;;18.11;76.37;96674.09;5090231;28;20048;-68
2021/08/12 03:24:45;;;;;;;12.63;7.18;;;;;;;18.12;76.09;96673.75;5090767;28;20048;-68
2021/08/12 03:27:12;;;;;;;13.02;8.18;;;;;;;18.16;76.11;96666.34;5090186;28;20070;-68
2021/08/12 03:29:39;;;;;;;11.77;7.20;;;;;;;18.18;76.04;96668.75;5090690;28;20121;-67
2021/08/12 03:32:06;;;;;;;14.57;7.35;;;;;;;18.17;75.77;96675.44;5090178;28;20036;-68
2021/08/12 03:34:33;;;;;;;13.38;7.28;;;;;;;18.13;75.77;96675.34;5091642;28;20044;-67
2021/08/12 03:37:01;;;;;;;10.82;7.72;;;;;;;18.05;75.90;96678.28;5094487;28;20048;-68
2021/08/12 03:39:28;;;;;;;10.80;7.07;;;;;;;18.04;76.25;96671.19;5094277;28;20040;-68
2021/08/12 03:41:55;;;;;;;13.50;7.82;;;;;;;18.05;76.39;96675.53;5094351;28;20040;-67
2021/08/12 03:44:21;;;;;;;12.80;7.03;;;;;;;17.98;76.50;96674.22;5093879;28;20052;-68
2021/08/12 03:46:48;;;;;;;11.82;7.43;;;;;;;18.00;76.60;96674.63;5094361;28;20048;-68
2021/08/12 03:49:14;;;;;;;13.80;7.90;;;;;;;17.98;76.55;96679.72;5093868;28;20039;-68
2021/08/12 03:51:41;;;;;;;11.13;7.45;;;;;;;17.95;76.77;96677.66;5093964;28;20043;-68
2021/08/12 03:54:09;;;;;;;10.70;7.18;;;;;;;17.99;76.72;96675.00;5093722;28;20036;-68
2021/08/12 03:56:35;;;;;;;13.82;7.10;;;;;;;18.02;76.57;96682.56;5093986;28;20387;-68
2021/08/12 03:59:02;;;;;;;11.90;7.63;;;;;;;17.97;76.42;96677.34;5093639;28;20047;-69
2021/08/12 04:01:29;;;;;;;11.55;7.32;;;;;;;17.92;76.64;96678.41;5093880;28;20044;-67
2021/08/12 04:03:56;;;;;;;13.25;7.20;;;;;;;17.95;76.69;96674.13;5093844;28;20048;-67
2021/08/12 04:06:22;;;;;;;10.88;6.93;;;;;;;17.96;76.01;96682.03;5093440;28;20048;-67
2021/08/12 04:08:49;;;;;;;9.60;6.90;;;;;;;17.95;76.12;96679.63;5093836;28;20040;-67
2021/08/12 04:11:17;;;;;;;12.88;8.23;;;;;;;17.90;76.74;96683.44;5093328;28;20055;-67
2021/08/12 04:13:43;;;;;;;15.65;7.60;;;;;;;17.86;76.79;96677.09;5093879;28;20067;-68
2021/08/12 04:16:10;;;;;;;11.38;7.47;;;;;;;17.85;76.92;96669.16;5093221;28;20059;-68
2021/08/12 04:18:36;;;;;;;11.32;7.35;;;;;;;17.88;77.23;96668.44;5093727;28;20047;-68
2021/08/12 04:21:02;;;;;;;14.88;6.90;;;;;;;17.90;77.57;96661.41;5093118;28;20063;-68
2021/08/12 04:23:29;;;;;;;12.27;6.47;;;;;;;17.84;77.02;96673.06;5093670;28;20044;-68
2021/08/12 04:25:55;;;;;;;10.23;6.68;;;;;;;17.78;76.35;96674.50;5093416;28;20036;-68
2021/08/12 04:28:23;;;;;;;11.68;7.03;;;;;;;17.72;76.68;96671.19;5093125;28;20047;-67
2021/08/12 04:30:50;;;;;;;10.07;6.70;;;;;;;17.74;77.33;96669.69;5093374;28;20410;-68
2021/08/12 04:33:17;;;;;;;9.52;6.63;;;;;;;17.76;77.35;96674.88;5092845;28;20046;-68
2021/08/12 04:35:44;;;;;;;18.58;7.53;;;;;;;17.75;77.08;96676.03;5093314;28;20048;-67
2021/08/12 04:38:10;;;;;;;11.57;6.78;;;;;;;17.73;76.96;96673.59;5092711;28;20044;-68
2021/08/12 04:40:37;;;;;;;8.85;6.55;;;;;;;17.71;76.65;96675.09;5093331;28;20036;-68
2021/08/12 04:43:04;;;;;;;9.55;6.60;;;;;;;17.69;76.37;96675.44;5092808;28;20047;-68
2021/08/12 04:45:32;;;;;;;11.18;6.82;;;;;;;17.66;76.53;96675.38;5092739;28;20036;-67
2021/08/12 04:48:00;;;;;;;10.48;7.07;;;;;;;17.65;76.67;96671.03;5092974;28;20052;-67
2021/08/12 04:50:27;;;;;;;10.75;6.70;;;;;;;17.70;76.84;96682.56;5092549;28;20066;-67
2021/08/12 04:52:53;;;;;;;12.75;7.03;;;;;;;17.74;77.46;96685.41;5092637;28;20044;-67
2021/08/12 04:55:20;;;;;;;14.10;7.35;;;;;;;17.79;77.89;96684.34;5092642;28;20496;-67
2021/08/12 04:57:46;;;;;;;15.25;7.05;;;;;;;17.83;77.79;96682.50;5092817;28;20044;-67
2021/08/12 05:00:14;;;;;;;14.80;7.22;;;;;;;17.85;77.59;96688.44;5092359;28;20048;-67
2021/08/12 05:02:41;;;;;;;12.68;7.68;;;;;;;17.84;77.03;96684.88;5092785;28;20048;-67
2021/08/12 05:05:09;;;;;;;12.50;7.45;;;;;;;17.87;76.94;96694.41;5091956;28;20040;-68
2021/08/12 05:07:36;;;;;;;16.45;7.55;;;;;;;17.93;76.74;96688.25;5092622;28;20047;-67
2021/08/12 05:10:02;;;;;;;10.98;7.80;;;;;;;18.03;76.63;96691.63;5092149;28;20526;-68
2021/08/12 05:12:29;;;;;;;11.63;7.10;;;;;;;18.04;76.46;96693.22;5092830;28;20050;-71
2021/08/12 05:14:58;;;;;;;15.90;8.00;;;;;;;18.06;76.95;96688.16;5092949;28;20047;-70
2021/08/12 05:17:24;;;;;;;14.93;7.82;;;;;;;18.08;76.84;96688.59;5092327;28;20120;-70
2021/08/12 05:19:52;;;;;;;18.02;8.38;;;;;;;18.09;76.98;96690.19;5092744;28;20044;-70
2021/08/12 05:22:20;;;;;;;14.07;7.30;;;;;;;18.13;77.04;96683.63;5092312;28;20044;-71
2021/08/12 05:24:47;;;;;;;23.65;8.75;;;;;;;18.19;77.16;96690.44;5092614;28;20039;-70
2021/08/12 05:27:13;;;;;;;19.73;8.32;;;;;;;18.27;77.04;96696.94;5092258;28;20052;-70
2021/08/12 05:29:40;;;;;;;16.25;9.00;;;;;;;18.34;76.97;96697.06;5092482;28;20501;-70
2021/08/12 05:32:07;;;;;;;17.63;8.50;;;;;;;18.41;76.46;96694.47;5092137;28;20043;-71
2021/08/12 05:34:33;;;;;;;20.00;7.95;;;;;;;18.47;76.62;96695.78;5092363;28;20055;-70
2021/08/12 05:37:01;;;;;;;20.77;8.13;;;;;;;18.56;76.68;96705.81;5089714;28;20506;-70
2021/08/12 05:39:28;;;;;;;17.83;8.27;;;;;;;18.63;76.50;96692.16;5091196;28;20051;-71
2021/08/12 05:41:54;;;;;;;15.38;7.38;;;;;;;18.66;76.05;96696.97;5089321;28;20044;-71
2021/08/12 05:44:21;;;;;;;14.43;7.50;;;;;;;18.70;76.62;96687.66;5088459;28;20044;-71
2021/08/12 05:46:47;;;;;;;13.30;7.50;;;;;;;18.76;77.02;96696.44;5089586;28;20056;-70
2021/08/12 05:49:14;;;;;;;17.05;7.35;;;;;;;18.82;77.16;96689.44;5088611;28;20055;-70
2021/08/12 05:51:40;;;;;;;19.73;8.10;;;;;;;18.90;76.59;96693.97;5088828;28;20063;-70
2021/08/12 05:54:08;;;;;;;15.25;7.68;;;;;;;18.95;75.91;96693.66;5089055;28;20036;-70
2021/08/12 05:56:35;;;;;;;15.52;7.72;;;;;;;18.99;76.29;96689.00;5091174;28;20384;-72
2021/08/12 05:59:02;;;;;;;15.95;8.45;;;;;;;19.08;75.95;96697.06;5072476;28;20032;-72
2021/08/12 06:01:29;;;;;;;27.75;8.52;;;;;;;19.15;75.75;96699.16;5091382;28;20044;-72
2021/08/12 06:03:56;;;;;;;14.68;8.05;;;;;;;19.18;75.83;96695.69;5091547;28;20133;-72
2021/08/12 06:06:22;;;;;;;13.68;8.23;;;;;;;19.25;75.79;96701.31;5091377;28;20056;-72
2021/08/12 06:08:48;;;;;;;14.23;8.27;;;;;;;19.34;75.39;96698.34;5091903;28;20052;-72
2021/08/12 06:11:16;;;;;;;15.80;8.00;;;;;;;19.41;74.55;96696.50;5091030;28;20044;-72
2021/08/12 06:13:43;;;;;;;14.77;8.50;;;;;;;19.47;74.54;96708.84;5091740;28;20048;-72
2021/08/12 06:16:10;;;;;;;15.75;9.02;;;;;;;19.53;74.53;96701.06;5091393;28;20059;-72
2021/08/12 06:18:36;;;;;;;14.18;8.40;;;;;;;19.58;74.21;96705.47;5091687;28;20117;-72
2021/08/12 06:21:03;;;;;;;15.07;8.35;;;;;;;19.65;74.13;96708.38;5091250;28;20040;-72
2021/08/12 06:23:29;;;;;;;13.90;8.05;;;;;;;19.72;74.32;96708.50;5091688;28;20509;-72
2021/08/12 06:25:58;;;;;;;13.00;8.20;;;;;;;19.84;71.91;96713.03;5091558;28;20044;-72
2021/08/12 06:28:26;;;;;;;15.20;8.88;;;;;;;19.89;72.31;96716.31;5091005;28;20105;-72
2021/08/12 06:30:53;;;;;;;13.05;9.40;;;;;;;19.92;72.06;96712.00;5091552;28;20040;-72
2021/08/12 06:33:19;;;;;;;13.57;9.13;;;;;;;20.00;72.88;96705.44;5090922;28;20055;-73
2021/08/12 06:35:46;;;;;;;13.77;8.48;;;;;;;20.05;72.95;96705.13;5091640;28;20040;-72
2021/08/12 06:38:12;;;;;;;12.60;8.65;;;;;;;20.15;72.74;96710.00;5091120;28;20055;-71
2021/08/12 06:40:39;;;;;;;13.80;8.73;;;;;;;20.23;72.00;96710.91;5091417;28;20602;-72
2021/08/12 06:43:05;;;;;;;12.95;8.07;;;;;;;20.28;70.45;96708.63;5090909;28;20059;-72
2021/08/12 06:45:33;;;;;;;11.68;8.77;;;;;;;20.36;69.71;96715.06;5091406;28;20054;-72
2021/08/12 06:48:04;;;;;;;12.02;8.35;;;;;;;20.42;69.74;96719.09;5091282;28;20047;-72
2021/08/12 06:50:31;;;;;;;11.65;8.35;;;;;;;20.49;69.32;96710.94;5091032;28;20407;-72
2021/08/12 06:52:57;;;;;;;12.43;8.15;;;;;;;20.51;70.30;96711.34;5090914;28;20036;-72
2021/08/12 06:55:24;;;;;;;15.07;8.60;;;;;;;20.53;70.09;96714.53;5090791;28;20044;-72
2021/08/12 06:57:50;;;;;;;11.18;8.32;;;;;;;20.58;69.93;96714.22;5091092;28;20040;-73
2021/08/12 07:00:18;;;;;;;18.48;8.98;;;;;;;20.67;69.63;96724.19;5090980;28;20040;-72
2021/08/12 07:02:46;;;;;;;13.15;8.88;;;;;;;20.77;69.47;96727.09;5090984;28;20126;-72
2021/08/12 07:05:12;;;;;;;10.95;8.30;;;;;;;20.87;68.92;96725.66;5090489;28;20040;-72
2021/08/12 07:07:39;;;;;;;11.98;7.90;;;;;;;20.91;69.24;96729.28;5091083;28;20036;-72
2021/08/12 07:10:06;;;;;;;13.68;8.75;;;;;;;21.01;69.15;96728.59;5094546;28;20044;-73
2021/08/12 07:12:32;;;;;;;11.95;8.15;;;;;;;21.06;68.77;96730.25;5095137;28;20613;-72
2021/08/12 07:14:59;;;;;;;12.30;7.78;;;;;;;21.11;68.33;96732.69;5095243;28;20043;-72
2021/08/12 07:17:28;;;;;;;9.27;7.40;;;;;;;21.25;69.35;96718.22;5094761;28;20040;-72
2021/08/12 07:19:56;;;;;;;12.63;7.40;;;;;;;21.37;69.64;96734.59;5095301;28;20414;-73
2021/08/12 07:22:23;;;;;;;13.32;8.13;;;;;;;21.50;68.92;96733.13;5094109;28;20040;-73
2021/08/12 07:24:49;;;;;;;10.40;8.02;;;;;;;21.60;67.34;96732.44;5094796;28;20051;-74
2021/08/12 07:27:16;;;;;;;11.02;7.63;;;;;;;21.73;66.94;96721.91;5094575;28;20490;-72
2021/08/12 07:29:42;;;;;;;11.68;7.90;;;;;;;21.83;65.95;96731.50;5095056;28;20058;-72
2021/08/12 07:32:10;;;;;;;10.80;7.82;;;;;;;21.94;66.11;96729.63;5094545;28;20048;-72
2021/08/12 07:34:36;;;;;;;12.68;8.18;;;;;;;22.05;67.44;96730.50;5094672;28;20068;-72
2021/08/12 07:37:05;;;;;;;13.02;7.72;;;;;;;22.16;67.29;96724.28;5094387;28;20093;-72
2021/08/12 07:39:31;;;;;;;12.15;8.32;;;;;;;22.24;66.03;96723.94;5094651;28;20051;-72
2021/08/12 07:41:58;;;;;;;10.75;7.53;;;;;;;22.35;65.95;96724.03;5094614;28;20047;-74
2021/08/12 07:44:24;;;;;;;10.55;7.78;;;;;;;22.41;66.17;96722.47;5094155;28;20051;-72
2021/08/12 07:46:50;;;;;;;12.55;7.90;;;;;;;22.51;67.08;96732.84;5094570;28;20506;-72
2021/08/12 07:49:17;;;;;;;13.07;8.38;;;;;;;22.57;65.62;96734.06;5094034;28;20052;-73
2021/08/12 07:51:43;;;;;;;10.88;7.80;;;;;;;22.69;65.75;96735.72;5094181;28;20044;-72
2021/08/12 07:54:11;;;;;;;12.68;8.07;;;;;;;23.16;64.20;96720.91;5093861;28;20044;-72
2021/08/12 07:56:38;;;;;;;13.75;7.88;;;;;;;24.04;62.71;96727.06;5094252;28;20048;-72
2021/08/12 07:59:04;;;;;;;11.07;7.35;;;;;;;24.79;59.29;96734.56;5093822;28;20040;-72
2021/08/12 08:01:31;;;;;;;10.60;7.50;;;;;;;24.97;59.73;96735.31;5094233;28;20040;-72
2021/08/12 08:03:59;;;;;;;11.27;8.27;;;;;;;25.19;61.13;96722.09;5093863;28;20048;-72
2021/08/12 08:06:26;;;;;;;11.82;7.85;;;;;;;25.57;58.04;96728.69;5093654;28;20040;-72
2021/08/12 08:08:52;;;;;;;12.38;7.22;;;;;;;26.31;57.36;96720.19;5094263;28;20486;-73
2021/08/12 08:11:20;;;;;;;11.40;7.00;;;;;;;26.91;53.84;96730.81;5093516;28;20047;-71
2021/08/12 08:13:46;;;;;;;10.25;6.97;;;;;;;27.59;49.91;96729.97;5094050;28;20059;-74
2021/08/12 08:16:13;;;;;;;11.75;7.53;;;;;;;28.28;50.07;96731.34;5093573;28;20052;-74
2021/08/12 08:18:40;;;;;;;9.50;6.93;;;;;;;28.82;49.56;96734.03;5093648;28;20044;-74
2021/08/12 08:21:06;;;;;;;10.68;6.97;;;;;;;28.95;48.76;96739.03;5092666;28;20047;-72
2021/08/12 08:23:33;;;;;;;8.40;6.93;;;;;;;28.83;49.42;96730.00;5093782;28;20049;-74
2021/08/12 08:25:59;;;;;;;11.07;7.28;;;;;;;28.40;48.62;96729.19;5093513;28;20513;-74
2021/08/12 08:28:27;;;;;;;11.15;7.65;;;;;;;28.15;50.50;96733.16;5093190;28;20036;-74
2021/08/12 08:30:54;;;;;;;13.25;6.95;;;;;;;28.37;50.14;96732.84;5093772;28;20047;-74
2021/08/12 08:33:20;;;;;;;9.70;6.90;;;;;;;29.07;45.49;96729.97;5092827;28;20127;-74
2021/08/12 08:35:47;;;;;;;9.18;6.25;;;;;;;29.55;45.10;96728.63;5093679;28;20040;-74
2021/08/12 08:38:13;;;;;;;9.52;6.60;;;;;;;30.15;45.06;96729.25;5092871;28;20051;-74
2021/08/12 08:40:40;;;;;;;8.98;6.60;;;;;;;30.42;43.16;96732.56;5093401;28;20043;-74
2021/08/12 08:43:07;;;;;;;9.57;6.85;;;;;;;30.64;40.30;96732.03;5093086;28;20044;-72
2021/08/12 08:45:38;;;;;;;10.55;6.68;;;;;;;30.98;41.69;96728.75;5093443;28;20101;-73
2021/08/12 08:48:12;;;;;;;10.43;6.68;;;;;;;31.57;40.03;96729.47;5092877;28;20097;-73
2021/08/12 08:50:44;;;;;;;8.48;6.32;;;;;;;32.14;38.67;96733.38;5093248;28;20040;-73
2021/08/12 08:53:15;;;;;;;8.60;6.05;;;;;;;32.59;39.19;96729.50;5072367;28;20045;-74
2021/08/12 08:55:42;;;;;;;10.80;6.43;;;;;;;32.96;40.23;96725.00;5072911;28;20049;-74
2021/08/12 08:58:10;;;;;;;10.23;6.18;;;;;;;33.10;36.48;96723.69;5072225;28;20052;-74
2021/08/12 09:00:38;;;;;;;12.10;6.45;;;;;;;33.52;36.94;96726.19;5072801;28;20052;-74
2021/08/12 09:03:05;;;;;;;7.82;6.07;;;;;;;33.65;35.43;96718.44;5075470;28;20441;-74
2021/08/12 09:05:32;;;;;;;12.50;6.78;;;;;;;33.69;38.33;96716.28;5092943;28;20048;-74
2021/08/12 09:08:00;;;;;;;9.27;5.97;;;;;;;33.65;34.05;96715.63;5092771;28;20043;-73
2021/08/12 09:10:26;;;;;;;9.38;6.43;;;;;;;33.62;34.67;96713.72;5092344;28;20044;-73
2021/08/12 09:12:53;;;;;;;6.57;5.70;;;;;;;33.61;35.23;96717.78;5092880;28;20048;-73
2021/08/12 09:15:21;;;;;;;10.38;5.80;;;;;;;33.91;33.34;96707.75;5092049;28;20047;-73
2021/08/12 09:17:50;;;;;;;9.57;6.05;;;;;;;33.75;34.36;96709.56;5092684;28;20467;-73
2021/08/12 09:20:18;;;;;;;7.18;5.90;;;;;;;33.73;36.28;96714.09;5091972;28;20059;-73
2021/08/12 09:22:49;;;;;;;8.18;5.75;;;;;;;33.92;34.87;96712.91;5092491;28;20048;-73
2021/08/12 09:25:17;;;;;;;9.20;6.10;;;;;;;34.09;32.76;96707.03;5091973;28;20052;-73
2021/08/12 09:27:44;;;;;;;8.27;6.15;;;;;;;34.35;33.86;96701.94;5092333;28;20411;-74
2021/08/12 09:30:13;;;;;;;8.52;5.88;;;;;;;34.60;33.17;96698.88;5091834;28;20047;-73
2021/08/12 09:32:47;;;;;;;8.88;5.88;;;;;;;34.42;34.30;96696.78;5091106;28;20047;-73
2021/08/12 09:35:22;;;;;;;8.32;6.18;;;;;;;34.34;35.04;96695.50;5090947;28;20043;-73
2021/08/12 09:37:49;;;;;;;7.72;5.90;;;;;;;34.14;33.87;96684.63;5092222;28;20071;-73
2021/08/12 09:40:15;;;;;;;11.55;5.60;;;;;;;33.91;35.80;96697.22;5091535;28;20063;-74
2021/08/12 09:43:00;;;;;;;7.85;6.07;;;;;;;33.75;33.76;96703.13;5092082;28;20044;-73
2021/08/12 09:45:28;;;;;;;8.95;5.82;;;;;;;33.56;37.07;96692.97;5091936;28;20096;-74
2021/08/12 09:47:56;;;;;;;8.23;5.78;;;;;;;33.09;37.13;96693.91;5092111;28;20047;-74
2021/08/12 09:50:31;;;;;;;8.95;6.25;;;;;;;32.75;39.53;96694.72;5091610;28;20048;-74
2021/08/12 09:52:58;;;;;;;9.63;5.80;;;;;;;32.36;37.83;96689.19;5091862;28;20067;-73
2021/08/12 09:55:25;;;;;;;7.55;5.90;;;;;;;31.94;37.53;96692.13;5091465;28;20051;-72
2021/08/12 09:57:53;;;;;;;7.97;6.03;;;;;;;31.36;37.88;96680.25;5092046;28;20051;-73
2021/08/12 10:00:31;;;;;;;8.40;6.40;;;;;;;30.66;41.25;96696.63;5091425;28;20424;-72
2021/08/12 10:02:58;;;;;;;6.55;5.70;;;;;;;30.23;42.41;96688.53;5091541;28;20730;-72
2021/08/12 10:05:26;;;;;;;7.75;6.55;;;;;;;29.94;45.08;96687.63;5071430;28;20051;-72
2021/08/12 10:07:54;;;;;;;7.65;6.07;;;;;;;29.83;45.33;96688.66;5071528;28;20067;-72
2021/08/12 10:10:23;;;;;;;10.90;6.07;;;;;;;29.78;42.43;96682.78;5071074;28;20625;-72
2021/08/12 10:12:51;;;;;;;10.45;6.00;;;;;;;29.81;47.67;96687.50;5071484;28;20045;-72
2021/08/12 10:15:23;;;;;;;8.88;6.20;;;;;;;29.79;41.81;96684.38;5070844;28;20139;-72
2021/08/12 10:17:50;;;;;;;7.43;6.03;;;;;;;29.74;40.77;96688.47;5071617;28;20495;-72
2021/08/12 10:20:19;;;;;;;12.30;6.50;;;;;;;29.71;45.41;96689.38;5070870;28;20135;-73
2021/08/12 10:22:49;;;;;;;10.75;6.18;;;;;;;29.73;45.84;96684.09;5088442;28;20399;-72
2021/08/12 10:25:17;;;;;;;10.00;6.40;;;;;;;29.88;44.95;96682.53;5091059;28;20056;-72
2021/08/12 10:27:45;;;;;;;11.13;6.32;;;;;;;29.90;45.22;96682.88;5091131;28;20515;-73
2021/08/12 10:30:13;;;;;;;7.80;5.80;;;;;;;29.86;41.99;96685.00;5090995;28;20040;-73
2021/08/12 10:32:47;;;;;;;9.00;6.20;;;;;;;29.82;40.58;96687.09;5091596;28;20048;-73
2021/08/12 10:35:14;;;;;;;7.85;5.88;;;;;;;29.90;43.41;96680.06;5090084;28;20128;-73
2021/08/12 10:37:40;;;;;;;9.18;6.28;;;;;;;29.96;45.12;96674.72;5091384;28;20040;-73
2021/08/12 10:40:13;;;;;;;9.65;5.93;;;;;;;30.05;44.03;96674.91;5090717;28;20541;-73
2021/08/12 10:42:41;;;;;;;10.77;6.05;;;;;;;30.18;44.15;96672.22;5090797;28;20044;-73
2021/08/12 10:45:08;;;;;;;7.72;5.78;;;;;;;30.09;39.01;96664.38;5090609;28;20048;-73
2021/08/12 10:47:40;;;;;;;8.43;6.50;;;;;;;30.03;42.85;96676.56;5091412;28;20040;-73
2021/08/12 10:50:34;;;;;;;9.85;6.38;;;;;;;30.10;43.71;96673.59;5090836;28;20040;-73
2021/08/12 10:53:20;;;;;;;8.75;6.32;;;;;;;30.11;44.57;96658.31;5091014;28;20040;-74
2021/08/12 10:56:12;;;;;;;9.23;6.70;;;;;;;30.02;38.06;96664.56;5090946;28;20044;-73
2021/08/12 10:58:45;;;;;;;11.07;6.07;;;;;;;30.10;39.91;96653.94;5090963;28;20040;-73
2021/08/12 11:01:13;;;;;;;8.23;5.65;;;;;;;30.11;40.42;96656.28;5090666;28;20055;-73
2021/08/12 11:03:45;;;;;;;9.20;6.22;;;;;;;30.09;41.01;96655.16;5090787;28;20048;-73
2021/08/12 11:06:17;;;;;;;10.38;6.35;;;;;;;30.04;38.02;96661.31;5090718;28;20049;-74
2021/08/12 11:08:59;;;;;;;9.63;6.28;;;;;;;29.99;42.09;96659.81;5090989;28;20043;-73
2021/08/12 11:12:03;;;;;;;7.95;6.22;;;;;;;30.14;40.25;96651.84;5090475;28;20051;-73
2021/08/12 11:14:56;;;;;;;8.32;6.22;;;;;;;30.19;40.95;96645.72;5090583;28;20123;-73
2021/08/12 11:17:23;;;;;;;7.88;6.00;;;;;;;30.21;40.57;96648.84;5090218;28;20051;-73
2021/08/12 11:19:51;;;;;;;9.20;6.20;;;;;;;30.20;40.33;96646.50;5090992;28;20081;-73
2021/08/12 11:22:36;;;;;;;9.30;6.97;;;;;;;30.26;41.99;96645.50;5090199;28;20609;-73
2021/08/12 11:25:05;;;;;;;10.38;5.90;;;;;;;30.30;40.54;96646.22;5090388;28;20040;-73
2021/08/12 11:27:42;;;;;;;7.85;5.65;;;;;;;30.27;38.77;96647.09;5090730;28;20133;-73
2021/08/12 11:30:45;;;;;;;8.38;6.35;;;;;;;30.21;40.64;96643.22;5072214;28;20093;-73
2021/08/12 11:33:24;;;;;;;;;;;;;;;30.26;42.45;96639.91;5090647;28;20051;-74